Hovedside
METAR-TAF:

METAR-TAF

Lufthavner :

Port Heiden, Alaska, USA

breddegrad: 56-57N, lengdegrad: 158-38W, høyde over havet: 29 m

Gjeldene værobservasjon

Denne rapporten ble laget for 44 minutter siden, klokken 16:56 UTC
Vind 7 kt fra Sør-sørøst
Temperatur 0°C
Luftfuktighet 80%
Trykk 1009 hPa
Sikt: 16.1 km
Få skyer i en høyde av 4100 ft
Spredte skyer i en høyde av 5000 ft

METAR: PAPH 231656Z AUTO 16007KT 10SM FEW041 SCT050 00/M03 A2981 RMK AO2 SLP095 T00001028 FZRANO $

Tid: 08:40 (17:40 UTC)


TAF: fraværende

Værobservasjoner og værvarsel for over 4000 flyplasser (METAR- og TAF-rapporter).

Tilgjengelige stasjoner er representert av de røde og gule prikkene på kartet.

Hold musepekeren over prikken for å se navnet på stasjonen.

Klikk så for å se værobservasjoner og -varsler.

For å forandre kartet kan du klikke på den grønne knappen med svart kryss for å zoome inn, på den grønne knappen med strek for å zoome ut, eller på de grønne pilene for å se tilstøtende kart.


METAR-TAF: